CSA664 LKPR-EGPH
Flight info
| Callsign | CSA664 |
|---|---|
| Flight time | 2h 6m |
| Altitude | 36000 |
| Route | BALTU DCT DONAD DCT VARIK L602 SODRO DCT KATCE DCT ANDIK DCT MIMVA L602 NALAX L46 ESHIN N110 ERKIT DCT AGPED |
| Aircraft | B735/M-SDFHIW/S |
Departure
| Time | 2026-04-26 11:45 |
|---|---|
| Airport | Václav Havel Airport Prague (LKPR) |
Arrival
| Time | 2026-04-26 13:51 |
|---|---|
| Airport | Edinburgh Airport (EGPH) |
| Time | Latitude | Longitude | Altitude | Speed | Heading |
|---|---|---|---|---|---|
| 2026-04-26 11:21 | 50.10928 | 14.26598 | 1170 ft | 0 kts | 214° |
| 2026-04-26 11:28 | 50.10929 | 14.26600 | 1174 ft | 2 kts | 214° |
| 2026-04-26 11:28 | 50.10950 | 14.26623 | 1170 ft | 4 kts | 218° |
| 2026-04-26 11:28 | 50.10968 | 14.26652 | 1172 ft | 4 kts | 253° |
| 2026-04-26 11:29 | 50.10966 | 14.26668 | 1173 ft | 0 kts | 328° |
| 2026-04-26 11:29 | 50.10980 | 14.26654 | 1170 ft | 4 kts | 328° |
| 2026-04-26 11:29 | 50.11003 | 14.26632 | 1174 ft | 4 kts | 328° |
| 2026-04-26 11:29 | 50.11019 | 14.26617 | 1171 ft | 1 kts | 328° |
| 2026-04-26 11:34 | 50.11020 | 14.26615 | 1171 ft | 2 kts | 328° |
| 2026-04-26 11:34 | 50.11038 | 14.26587 | 1174 ft | 5 kts | 300° |
| 2026-04-26 11:34 | 50.11039 | 14.26529 | 1173 ft | 6 kts | 247° |
| 2026-04-26 11:35 | 50.11013 | 14.26480 | 1172 ft | 6 kts | 213° |
| 2026-04-26 11:35 | 50.10978 | 14.26442 | 1170 ft | 6 kts | 214° |
| 2026-04-26 11:35 | 50.10939 | 14.26403 | 1173 ft | 7 kts | 216° |
| 2026-04-26 11:35 | 50.10913 | 14.26373 | 1173 ft | 7 kts | 216° |
| 2026-04-26 11:36 | 50.10860 | 14.26315 | 1171 ft | 7 kts | 215° |
| 2026-04-26 11:36 | 50.10819 | 14.26272 | 1174 ft | 7 kts | 213° |
| 2026-04-26 11:36 | 50.10777 | 14.26228 | 1171 ft | 7 kts | 215° |
| 2026-04-26 11:36 | 50.10736 | 14.26184 | 1172 ft | 7 kts | 215° |
| 2026-04-26 11:37 | 50.10695 | 14.26138 | 1172 ft | 8 kts | 215° |
| 2026-04-26 11:37 | 50.10648 | 14.26089 | 1172 ft | 9 kts | 214° |
| 2026-04-26 11:37 | 50.10595 | 14.26038 | 1170 ft | 9 kts | 210° |
| 2026-04-26 11:37 | 50.10546 | 14.25990 | 1173 ft | 8 kts | 213° |
| 2026-04-26 11:38 | 50.10501 | 14.25986 | 1171 ft | 6 kts | 149° |
| 2026-04-26 11:38 | 50.10466 | 14.26046 | 1176 ft | 10 kts | 127° |
| 2026-04-26 11:38 | 50.10418 | 14.26144 | 1174 ft | 13 kts | 128° |
| 2026-04-26 11:38 | 50.10361 | 14.26265 | 1176 ft | 15 kts | 126° |
| 2026-04-26 11:39 | 50.10297 | 14.26398 | 1177 ft | 16 kts | 128° |
| 2026-04-26 11:39 | 50.10228 | 14.26538 | 1175 ft | 16 kts | 128° |
| 2026-04-26 11:39 | 50.10159 | 14.26680 | 1178 ft | 16 kts | 127° |
| 2026-04-26 11:39 | 50.10097 | 14.26809 | 1185 ft | 13 kts | 127° |
| 2026-04-26 11:40 | 50.10049 | 14.26909 | 1192 ft | 10 kts | 127° |
| 2026-04-26 11:40 | 50.09999 | 14.27012 | 1196 ft | 14 kts | 127° |
| 2026-04-26 11:40 | 50.09940 | 14.27132 | 1200 ft | 14 kts | 128° |
| 2026-04-26 11:40 | 50.09878 | 14.27260 | 1202 ft | 15 kts | 128° |
| 2026-04-26 11:41 | 50.09808 | 14.27379 | 1204 ft | 14 kts | 136° |
| 2026-04-26 11:42 | 50.09491 | 14.27510 | 1212 ft | 0 kts | 217° |
| 2026-04-26 11:43 | 50.09490 | 14.27510 | 1212 ft | 0 kts | 217° |
| 2026-04-26 11:43 | 50.09488 | 14.27507 | 1212 ft | 3 kts | 217° |
| 2026-04-26 11:43 | 50.09456 | 14.27470 | 1210 ft | 8 kts | 217° |
| 2026-04-26 11:43 | 50.09421 | 14.27409 | 1210 ft | 7 kts | 258° |
| 2026-04-26 11:44 | 50.09461 | 14.27303 | 1207 ft | 21 kts | 307° |
| 2026-04-26 11:44 | 50.09650 | 14.26915 | 1207 ft | 73 kts | 307° |
| 2026-04-26 11:44 | 50.10080 | 14.26033 | 1191 ft | 132 kts | 307° |
| 2026-04-26 11:44 | 50.10708 | 14.24685 | 1481 ft | 167 kts | 307° |
| 2026-04-26 11:45 | 50.11447 | 14.23198 | 2238 ft | 180 kts | 308° |
| 2026-04-26 11:45 | 50.12211 | 14.21581 | 2936 ft | 192 kts | 308° |
| 2026-04-26 11:45 | 50.13052 | 14.19835 | 3563 ft | 212 kts | 309° |
| 2026-04-26 11:45 | 50.13985 | 14.17928 | 4146 ft | 232 kts | 309° |
| 2026-04-26 11:46 | 50.15009 | 14.15834 | 4824 ft | 250 kts | 308° |
| 2026-04-26 11:46 | 50.16051 | 14.13662 | 5936 ft | 252 kts | 308° |
| 2026-04-26 11:46 | 50.17124 | 14.11452 | 6922 ft | 257 kts | 309° |
| 2026-04-26 11:46 | 50.18182 | 14.09193 | 7910 ft | 259 kts | 308° |
| 2026-04-26 11:47 | 50.19264 | 14.06917 | 8895 ft | 262 kts | 308° |
| 2026-04-26 11:47 | 50.20364 | 14.04634 | 9916 ft | 264 kts | 309° |
| 2026-04-26 11:47 | 50.21462 | 14.02310 | 10835 ft | 268 kts | 306° |
| 2026-04-26 11:47 | 50.22375 | 13.99698 | 11487 ft | 284 kts | 292° |
| 2026-04-26 11:48 | 50.22652 | 13.96540 | 12141 ft | 303 kts | 269° |
| 2026-04-26 11:48 | 50.22213 | 13.93284 | 13126 ft | 311 kts | 258° |
| 2026-04-26 11:48 | 50.21496 | 13.90041 | 13908 ft | 320 kts | 255° |
| 2026-04-26 11:48 | 50.20729 | 13.86802 | 14703 ft | 323 kts | 255° |
| 2026-04-26 11:49 | 50.19970 | 13.83476 | 15469 ft | 327 kts | 256° |
| 2026-04-26 11:49 | 50.19229 | 13.80093 | 16255 ft | 331 kts | 256° |
| 2026-04-26 11:49 | 50.18488 | 13.76657 | 17026 ft | 335 kts | 257° |
| 2026-04-26 11:49 | 50.17741 | 13.73191 | 17800 ft | 340 kts | 257° |
| 2026-04-26 11:50 | 50.16984 | 13.69683 | 18573 ft | 344 kts | 257° |
| 2026-04-26 11:50 | 50.16217 | 13.66136 | 19285 ft | 346 kts | 256° |
| 2026-04-26 11:50 | 50.15438 | 13.62558 | 19994 ft | 349 kts | 256° |
| 2026-04-26 11:50 | 50.14658 | 13.58977 | 20686 ft | 351 kts | 256° |
| 2026-04-26 11:51 | 50.13867 | 13.55340 | 21361 ft | 354 kts | 256° |
| 2026-04-26 11:51 | 50.13079 | 13.51708 | 22050 ft | 356 kts | 256° |
| 2026-04-26 11:51 | 50.12283 | 13.48033 | 22715 ft | 359 kts | 255° |
| 2026-04-26 11:51 | 50.11479 | 13.44335 | 23381 ft | 362 kts | 255° |
| 2026-04-26 11:52 | 50.10667 | 13.40599 | 23978 ft | 365 kts | 255° |
| 2026-04-26 11:52 | 50.10128 | 13.38120 | 24338 ft | 366 kts | 255° |
| 2026-04-26 11:52 | 50.09130 | 13.33061 | 25063 ft | 367 kts | 260° |
| 2026-04-26 11:52 | 50.08740 | 13.29118 | 25576 ft | 367 kts | 268° |
| 2026-04-26 11:53 | 50.08622 | 13.25154 | 26145 ft | 367 kts | 271° |
| 2026-04-26 11:53 | 50.08590 | 13.21158 | 26676 ft | 370 kts | 271° |
| 2026-04-26 11:53 | 50.08539 | 13.17160 | 27255 ft | 370 kts | 270° |
| 2026-04-26 11:54 | 50.08336 | 13.09120 | 28249 ft | 376 kts | 269° |
| 2026-04-26 11:54 | 50.08221 | 13.05056 | 28755 ft | 378 kts | 269° |
| 2026-04-26 11:54 | 50.08245 | 13.00978 | 28950 ft | 388 kts | 276° |
| 2026-04-26 11:54 | 50.08810 | 12.96797 | 29109 ft | 398 kts | 289° |
| 2026-04-26 11:55 | 50.09994 | 12.92891 | 29683 ft | 399 kts | 298° |
| 2026-04-26 11:55 | 50.11410 | 12.89172 | 30199 ft | 402 kts | 299° |
| 2026-04-26 11:55 | 50.12834 | 12.85392 | 30592 ft | 405 kts | 298° |
| 2026-04-26 11:55 | 50.14200 | 12.81554 | 31098 ft | 405 kts | 297° |
| 2026-04-26 11:56 | 50.15530 | 12.77678 | 31655 ft | 404 kts | 296° |
| 2026-04-26 11:56 | 50.16845 | 12.73807 | 32109 ft | 405 kts | 296° |
| 2026-04-26 11:56 | 50.18150 | 12.69982 | 32601 ft | 404 kts | 296° |
| 2026-04-26 11:56 | 50.19479 | 12.66105 | 33124 ft | 403 kts | 296° |
| 2026-04-26 11:57 | 50.20808 | 12.62246 | 33612 ft | 403 kts | 296° |
| 2026-04-26 11:57 | 50.22132 | 12.58400 | 34087 ft | 403 kts | 296° |
| 2026-04-26 11:57 | 50.23458 | 12.54546 | 34513 ft | 403 kts | 296° |
| 2026-04-26 11:57 | 50.24783 | 12.50697 | 34938 ft | 401 kts | 296° |
| 2026-04-26 11:58 | 50.26104 | 12.46854 | 35358 ft | 401 kts | 296° |
| 2026-04-26 11:58 | 50.27422 | 12.43015 | 35719 ft | 401 kts | 296° |
| 2026-04-26 11:58 | 50.28719 | 12.39147 | 35938 ft | 401 kts | 295° |
| 2026-04-26 11:58 | 50.29944 | 12.35244 | 36177 ft | 397 kts | 294° |
| 2026-04-26 11:59 | 50.31099 | 12.31372 | 36293 ft | 397 kts | 293° |
| 2026-04-26 11:59 | 50.33409 | 12.23529 | 36290 ft | 399 kts | 293° |
| 2026-04-26 12:00 | 50.35871 | 12.15531 | 36302 ft | 417 kts | 295° |
| 2026-04-26 12:00 | 50.38077 | 12.08736 | 36290 ft | 420 kts | 295° |
| 2026-04-26 12:01 | 50.40707 | 12.00630 | 36285 ft | 414 kts | 295° |
| 2026-04-26 12:01 | 50.43307 | 11.92543 | 36290 ft | 417 kts | 295° |
| 2026-04-26 12:02 | 50.45942 | 11.84428 | 36288 ft | 417 kts | 297° |
| 2026-04-26 12:02 | 50.49264 | 11.76933 | 36292 ft | 420 kts | 308° |
| 2026-04-26 12:03 | 50.53164 | 11.70040 | 36287 ft | 421 kts | 309° |
| 2026-04-26 12:03 | 50.56959 | 11.63091 | 36289 ft | 421 kts | 308° |
| 2026-04-26 12:04 | 50.60713 | 11.56017 | 36287 ft | 421 kts | 308° |
| 2026-04-26 12:04 | 50.64491 | 11.48962 | 36292 ft | 421 kts | 308° |
| 2026-04-26 12:05 | 50.68278 | 11.41903 | 36292 ft | 421 kts | 308° |
| 2026-04-26 12:05 | 50.72053 | 11.34841 | 36301 ft | 421 kts | 308° |
| 2026-04-26 12:06 | 50.75827 | 11.27774 | 36299 ft | 422 kts | 308° |
| 2026-04-26 12:06 | 50.79612 | 11.20696 | 36313 ft | 421 kts | 308° |
| 2026-04-26 12:07 | 50.83384 | 11.13627 | 36314 ft | 422 kts | 308° |
| 2026-04-26 12:07 | 50.87157 | 11.06544 | 36314 ft | 423 kts | 308° |
| 2026-04-26 12:08 | 50.90946 | 10.99430 | 36318 ft | 422 kts | 308° |
| 2026-04-26 12:08 | 50.94737 | 10.92308 | 36323 ft | 423 kts | 308° |
| 2026-04-26 12:09 | 50.98540 | 10.85159 | 36319 ft | 423 kts | 308° |
| 2026-04-26 12:09 | 51.02334 | 10.78021 | 36318 ft | 422 kts | 308° |
| 2026-04-26 12:10 | 51.06096 | 10.70933 | 36317 ft | 422 kts | 308° |
| 2026-04-26 12:10 | 51.09893 | 10.63773 | 36310 ft | 423 kts | 308° |
| 2026-04-26 12:11 | 51.13687 | 10.56613 | 36306 ft | 423 kts | 308° |
| 2026-04-26 12:11 | 51.17479 | 10.49453 | 36304 ft | 423 kts | 308° |
| 2026-04-26 12:12 | 51.21275 | 10.42283 | 36302 ft | 423 kts | 308° |
| 2026-04-26 12:12 | 51.25005 | 10.35006 | 36298 ft | 422 kts | 303° |
| 2026-04-26 12:13 | 51.27813 | 10.26922 | 36307 ft | 419 kts | 292° |
| 2026-04-26 12:13 | 51.30146 | 10.18383 | 36303 ft | 420 kts | 293° |
| 2026-04-26 12:14 | 51.32636 | 10.09926 | 36303 ft | 420 kts | 294° |
| 2026-04-26 12:14 | 51.35166 | 10.01514 | 36300 ft | 420 kts | 294° |
| 2026-04-26 12:15 | 51.37675 | 9.93046 | 36303 ft | 420 kts | 294° |
| 2026-04-26 12:15 | 51.40167 | 9.84632 | 36309 ft | 420 kts | 294° |
| 2026-04-26 12:16 | 51.42676 | 9.76174 | 36311 ft | 420 kts | 294° |
| 2026-04-26 12:16 | 51.45186 | 9.67712 | 36315 ft | 420 kts | 294° |
| 2026-04-26 12:17 | 51.47693 | 9.59251 | 36319 ft | 420 kts | 294° |
| 2026-04-26 12:17 | 51.50196 | 9.50794 | 36321 ft | 419 kts | 294° |
| 2026-04-26 12:18 | 51.52707 | 9.42317 | 36319 ft | 421 kts | 294° |
| 2026-04-26 12:18 | 51.55217 | 9.33825 | 36317 ft | 420 kts | 294° |
| 2026-04-26 12:19 | 51.57719 | 9.25357 | 36318 ft | 420 kts | 294° |
| 2026-04-26 12:19 | 51.60215 | 9.16914 | 36314 ft | 420 kts | 294° |
| 2026-04-26 12:20 | 51.62725 | 9.08407 | 36312 ft | 420 kts | 294° |
| 2026-04-26 12:20 | 51.65235 | 8.99905 | 36312 ft | 419 kts | 294° |
| 2026-04-26 12:21 | 51.67738 | 8.91425 | 36317 ft | 419 kts | 294° |
| 2026-04-26 12:21 | 51.70248 | 8.82937 | 36319 ft | 419 kts | 294° |
| 2026-04-26 12:22 | 51.72745 | 8.74442 | 36319 ft | 419 kts | 294° |
| 2026-04-26 12:22 | 51.75232 | 8.65987 | 36319 ft | 420 kts | 294° |
| 2026-04-26 12:23 | 51.77736 | 8.57488 | 36319 ft | 418 kts | 294° |
| 2026-04-26 12:23 | 51.80230 | 8.49001 | 36322 ft | 418 kts | 294° |
| 2026-04-26 12:24 | 51.82721 | 8.40517 | 36320 ft | 418 kts | 294° |
| 2026-04-26 12:24 | 51.85221 | 8.32011 | 36320 ft | 419 kts | 294° |
| 2026-04-26 12:25 | 51.88946 | 8.19319 | 36319 ft | 416 kts | 294° |
| 2026-04-26 12:25 | 51.91434 | 8.10859 | 36325 ft | 417 kts | 294° |
| 2026-04-26 12:26 | 51.93925 | 8.02368 | 36327 ft | 418 kts | 294° |
| 2026-04-26 12:26 | 51.96425 | 7.93819 | 36323 ft | 418 kts | 294° |
| 2026-04-26 12:27 | 51.98923 | 7.85319 | 36323 ft | 415 kts | 294° |
| 2026-04-26 12:27 | 52.01396 | 7.76849 | 36326 ft | 417 kts | 294° |
| 2026-04-26 12:28 | 52.03885 | 7.68339 | 36320 ft | 417 kts | 294° |
| 2026-04-26 12:28 | 52.06347 | 7.59915 | 36321 ft | 414 kts | 294° |
| 2026-04-26 12:29 | 52.08827 | 7.51433 | 36322 ft | 416 kts | 294° |
| 2026-04-26 12:30 | 52.12544 | 7.38710 | 36324 ft | 415 kts | 294° |
| 2026-04-26 12:30 | 52.15030 | 7.30202 | 36326 ft | 415 kts | 294° |
| 2026-04-26 12:31 | 52.18737 | 7.17489 | 36321 ft | 414 kts | 294° |
| 2026-04-26 12:31 | 52.21198 | 7.09028 | 36323 ft | 413 kts | 294° |
| 2026-04-26 12:32 | 52.23674 | 7.00544 | 36325 ft | 414 kts | 295° |
| 2026-04-26 12:33 | 52.27364 | 6.87878 | 36328 ft | 413 kts | 295° |
| 2026-04-26 12:33 | 52.29828 | 6.79403 | 36330 ft | 413 kts | 294° |
| 2026-04-26 12:34 | 52.32297 | 6.70908 | 36331 ft | 414 kts | 295° |
| 2026-04-26 12:34 | 52.34764 | 6.62426 | 36332 ft | 412 kts | 295° |
| 2026-04-26 12:35 | 52.37223 | 6.53956 | 36334 ft | 412 kts | 294° |
| 2026-04-26 12:35 | 52.39685 | 6.45469 | 36331 ft | 412 kts | 295° |
| 2026-04-26 12:36 | 52.42132 | 6.37034 | 36332 ft | 412 kts | 295° |
| 2026-04-26 12:36 | 52.44589 | 6.28553 | 36334 ft | 411 kts | 295° |
| 2026-04-26 12:37 | 52.47045 | 6.20086 | 36332 ft | 411 kts | 295° |
| 2026-04-26 12:37 | 52.49501 | 6.11608 | 36333 ft | 411 kts | 295° |
| 2026-04-26 12:38 | 52.51959 | 6.03114 | 36333 ft | 411 kts | 295° |
| 2026-04-26 12:38 | 52.54409 | 5.94642 | 36335 ft | 410 kts | 295° |
| 2026-04-26 12:39 | 52.56840 | 5.86238 | 36340 ft | 410 kts | 295° |
| 2026-04-26 12:39 | 52.59284 | 5.77781 | 36342 ft | 409 kts | 295° |
| 2026-04-26 12:40 | 52.61725 | 5.69326 | 36343 ft | 408 kts | 295° |
| 2026-04-26 12:40 | 52.64164 | 5.60869 | 36345 ft | 409 kts | 295° |
| 2026-04-26 12:41 | 52.66602 | 5.52418 | 36344 ft | 408 kts | 295° |
| 2026-04-26 12:41 | 52.69036 | 5.43982 | 36346 ft | 407 kts | 295° |
| 2026-04-26 12:42 | 52.71466 | 5.35546 | 36350 ft | 407 kts | 295° |
| 2026-04-26 12:42 | 52.73815 | 5.27108 | 36347 ft | 407 kts | 292° |
| 2026-04-26 12:43 | 52.75604 | 5.18247 | 36360 ft | 408 kts | 287° |
| 2026-04-26 12:43 | 52.77169 | 5.09240 | 36363 ft | 406 kts | 287° |
| 2026-04-26 12:44 | 52.78806 | 5.00333 | 36368 ft | 406 kts | 288° |
| 2026-04-26 12:44 | 52.80464 | 4.91406 | 36371 ft | 405 kts | 288° |
| 2026-04-26 12:45 | 52.82097 | 4.82544 | 36373 ft | 405 kts | 287° |
| 2026-04-26 12:45 | 52.83472 | 4.75068 | 36374 ft | 405 kts | 288° |
| 2026-04-26 12:46 | 52.85381 | 4.64715 | 36374 ft | 405 kts | 288° |
| 2026-04-26 12:46 | 52.87023 | 4.55801 | 36371 ft | 405 kts | 288° |
| 2026-04-26 12:47 | 52.88663 | 4.46887 | 36370 ft | 404 kts | 288° |
| 2026-04-26 12:47 | 52.90024 | 4.39490 | 36366 ft | 404 kts | 288° |
| 2026-04-26 12:48 | 52.91661 | 4.30591 | 36366 ft | 404 kts | 288° |
| 2026-04-26 12:48 | 52.93301 | 4.21674 | 36366 ft | 403 kts | 288° |
| 2026-04-26 12:49 | 52.94926 | 4.12834 | 36366 ft | 403 kts | 288° |
| 2026-04-26 12:49 | 52.96561 | 4.03930 | 36372 ft | 403 kts | 287° |
| 2026-04-26 12:50 | 52.98196 | 3.95025 | 36367 ft | 403 kts | 288° |
| 2026-04-26 12:50 | 52.99830 | 3.86133 | 36370 ft | 402 kts | 288° |
| 2026-04-26 12:51 | 53.01461 | 3.77241 | 36373 ft | 402 kts | 287° |
| 2026-04-26 12:51 | 53.03093 | 3.68351 | 36369 ft | 402 kts | 287° |
| 2026-04-26 12:52 | 53.04721 | 3.59453 | 36373 ft | 402 kts | 287° |
| 2026-04-26 12:52 | 53.06353 | 3.50563 | 36374 ft | 402 kts | 287° |
| 2026-04-26 12:53 | 53.07971 | 3.41731 | 36370 ft | 402 kts | 287° |
| 2026-04-26 12:53 | 53.09588 | 3.32839 | 36372 ft | 401 kts | 286° |
| 2026-04-26 12:54 | 53.10931 | 3.23788 | 36371 ft | 402 kts | 283° |
| 2026-04-26 12:54 | 53.12073 | 3.14683 | 36368 ft | 402 kts | 283° |
| 2026-04-26 12:55 | 53.13250 | 3.05602 | 36367 ft | 401 kts | 283° |
| 2026-04-26 12:55 | 53.14447 | 2.96519 | 36367 ft | 401 kts | 283° |
| 2026-04-26 12:56 | 53.15627 | 2.87504 | 36369 ft | 401 kts | 283° |
| 2026-04-26 12:56 | 53.16816 | 2.78417 | 36366 ft | 400 kts | 283° |
| 2026-04-26 12:57 | 53.18003 | 2.69348 | 36365 ft | 400 kts | 283° |
| 2026-04-26 12:57 | 53.19189 | 2.60279 | 36363 ft | 401 kts | 283° |
| 2026-04-26 12:58 | 53.20952 | 2.46633 | 36364 ft | 401 kts | 282° |
| 2026-04-26 12:58 | 53.22058 | 2.37575 | 36360 ft | 401 kts | 282° |
| 2026-04-26 12:59 | 53.23168 | 2.28449 | 36362 ft | 401 kts | 282° |
| 2026-04-26 12:59 | 53.24284 | 2.19334 | 36358 ft | 401 kts | 282° |
| 2026-04-26 13:00 | 53.25400 | 2.10200 | 36362 ft | 401 kts | 282° |
| 2026-04-26 13:00 | 53.26515 | 2.01075 | 36362 ft | 401 kts | 282° |
| 2026-04-26 13:01 | 53.27626 | 1.91995 | 36365 ft | 401 kts | 282° |
| 2026-04-26 13:01 | 53.28741 | 1.82862 | 36366 ft | 401 kts | 282° |
| 2026-04-26 13:02 | 53.29858 | 1.73719 | 36371 ft | 400 kts | 282° |
| 2026-04-26 13:02 | 53.30971 | 1.64603 | 36358 ft | 400 kts | 281° |
| 2026-04-26 13:03 | 53.32085 | 1.55473 | 36358 ft | 401 kts | 282° |
| 2026-04-26 13:03 | 53.33284 | 1.46355 | 36355 ft | 401 kts | 283° |
| 2026-04-26 13:04 | 53.34584 | 1.37266 | 36364 ft | 401 kts | 283° |
| 2026-04-26 13:04 | 53.35871 | 1.28222 | 36357 ft | 401 kts | 283° |
| 2026-04-26 13:05 | 53.37151 | 1.19138 | 36356 ft | 401 kts | 283° |
| 2026-04-26 13:05 | 53.38436 | 1.10031 | 36361 ft | 401 kts | 283° |
| 2026-04-26 13:06 | 53.39720 | 1.00943 | 36353 ft | 401 kts | 283° |
| 2026-04-26 13:06 | 53.41004 | 0.91844 | 36355 ft | 401 kts | 283° |
| 2026-04-26 13:07 | 53.42280 | 0.82799 | 36359 ft | 401 kts | 283° |
| 2026-04-26 13:07 | 53.43564 | 0.73699 | 36343 ft | 401 kts | 283° |
| 2026-04-26 13:08 | 53.44847 | 0.64593 | 36348 ft | 401 kts | 282° |
| 2026-04-26 13:08 | 53.46132 | 0.55476 | 36349 ft | 401 kts | 282° |
| 2026-04-26 13:09 | 53.47415 | 0.46373 | 36340 ft | 400 kts | 282° |
| 2026-04-26 13:09 | 53.48682 | 0.37264 | 36343 ft | 401 kts | 282° |
| 2026-04-26 13:10 | 53.49912 | 0.28126 | 36355 ft | 401 kts | 282° |
| 2026-04-26 13:10 | 53.51125 | 0.19091 | 36334 ft | 401 kts | 282° |
| 2026-04-26 13:11 | 53.52358 | 0.09921 | 36341 ft | 401 kts | 282° |
| 2026-04-26 13:11 | 53.53568 | 0.00758 | 36336 ft | 401 kts | 282° |
| 2026-04-26 13:12 | 53.54770 | -0.08402 | 36324 ft | 401 kts | 282° |
| 2026-04-26 13:12 | 53.55975 | -0.17566 | 36315 ft | 401 kts | 282° |
| 2026-04-26 13:13 | 53.57293 | -0.26658 | 36312 ft | 401 kts | 288° |
| 2026-04-26 13:13 | 53.58481 | -0.30924 | 36307 ft | 405 kts | 302° |
| 2026-04-26 13:13 | 53.60342 | -0.34417 | 36344 ft | 410 kts | 317° |
| 2026-04-26 13:14 | 53.65263 | -0.39514 | 36316 ft | 417 kts | 326° |
| 2026-04-26 13:14 | 53.70182 | -0.44677 | 36323 ft | 416 kts | 322° |
| 2026-04-26 13:15 | 53.74917 | -0.50253 | 36325 ft | 414 kts | 321° |
| 2026-04-26 13:15 | 53.78847 | -0.54884 | 36323 ft | 415 kts | 321° |
| 2026-04-26 13:16 | 53.84412 | -0.61356 | 36323 ft | 414 kts | 321° |
| 2026-04-26 13:16 | 53.89170 | -0.66897 | 36317 ft | 414 kts | 321° |
| 2026-04-26 13:17 | 53.96258 | -0.75176 | 36315 ft | 414 kts | 321° |
| 2026-04-26 13:18 | 54.03416 | -0.83416 | 36319 ft | 414 kts | 323° |
| 2026-04-26 13:19 | 54.10867 | -0.90976 | 36312 ft | 416 kts | 325° |
| 2026-04-26 13:19 | 54.15841 | -0.95986 | 36305 ft | 416 kts | 324° |
| 2026-04-26 13:20 | 54.20814 | -1.01052 | 36303 ft | 415 kts | 324° |
| 2026-04-26 13:20 | 54.25776 | -1.06101 | 36301 ft | 415 kts | 324° |
| 2026-04-26 13:21 | 54.30706 | -1.11121 | 36299 ft | 415 kts | 324° |
| 2026-04-26 13:21 | 54.35674 | -1.16184 | 36304 ft | 415 kts | 324° |
| 2026-04-26 13:22 | 54.40641 | -1.21256 | 36297 ft | 415 kts | 324° |
| 2026-04-26 13:22 | 54.45616 | -1.26341 | 36298 ft | 415 kts | 324° |
| 2026-04-26 13:23 | 54.50588 | -1.31427 | 36294 ft | 415 kts | 324° |
| 2026-04-26 13:23 | 54.55514 | -1.36477 | 36292 ft | 415 kts | 324° |
| 2026-04-26 13:24 | 54.60503 | -1.41591 | 36295 ft | 416 kts | 324° |
| 2026-04-26 13:24 | 54.65473 | -1.46693 | 36297 ft | 416 kts | 324° |
| 2026-04-26 13:25 | 54.70426 | -1.51792 | 36297 ft | 416 kts | 324° |
| 2026-04-26 13:25 | 54.75410 | -1.56920 | 36299 ft | 417 kts | 324° |
| 2026-04-26 13:26 | 54.80329 | -1.61980 | 36282 ft | 400 kts | 324° |
| 2026-04-26 13:26 | 54.85015 | -1.66811 | 36302 ft | 389 kts | 323° |
| 2026-04-26 13:27 | 54.89708 | -1.71684 | 36296 ft | 395 kts | 323° |
| 2026-04-26 13:27 | 54.94423 | -1.76553 | 36291 ft | 392 kts | 323° |
| 2026-04-26 13:28 | 54.99069 | -1.81362 | 36291 ft | 391 kts | 323° |
| 2026-04-26 13:28 | 55.01447 | -1.83830 | 36163 ft | 394 kts | 323° |
| 2026-04-26 13:28 | 55.03769 | -1.86244 | 35780 ft | 394 kts | 323° |
| 2026-04-26 13:28 | 55.06114 | -1.88676 | 35337 ft | 389 kts | 323° |
| 2026-04-26 13:29 | 55.08432 | -1.91080 | 34913 ft | 386 kts | 323° |
| 2026-04-26 13:29 | 55.09946 | -1.92704 | 34635 ft | 384 kts | 320° |
| 2026-04-26 13:29 | 55.12626 | -1.96676 | 34013 ft | 373 kts | 303° |
| 2026-04-26 13:29 | 55.14028 | -2.00425 | 33542 ft | 368 kts | 293° |
| 2026-04-26 13:30 | 55.15187 | -2.04458 | 33061 ft | 372 kts | 293° |
| 2026-04-26 13:30 | 55.16387 | -2.08469 | 32589 ft | 374 kts | 295° |
| 2026-04-26 13:30 | 55.17667 | -2.12465 | 32110 ft | 377 kts | 296° |
| 2026-04-26 13:30 | 55.18985 | -2.16453 | 31626 ft | 380 kts | 296° |
| 2026-04-26 13:31 | 55.20313 | -2.20470 | 31152 ft | 382 kts | 296° |
| 2026-04-26 13:31 | 55.21640 | -2.24516 | 30693 ft | 384 kts | 296° |
| 2026-04-26 13:31 | 55.22955 | -2.28548 | 30198 ft | 388 kts | 296° |
| 2026-04-26 13:31 | 55.24296 | -2.32663 | 29660 ft | 389 kts | 296° |
| 2026-04-26 13:32 | 55.25648 | -2.36812 | 29117 ft | 391 kts | 296° |
| 2026-04-26 13:32 | 55.26981 | -2.40905 | 28560 ft | 381 kts | 296° |
| 2026-04-26 13:32 | 55.28277 | -2.44875 | 28002 ft | 368 kts | 296° |
| 2026-04-26 13:32 | 55.29531 | -2.48721 | 27459 ft | 360 kts | 296° |
| 2026-04-26 13:33 | 55.30776 | -2.52556 | 26937 ft | 362 kts | 296° |
| 2026-04-26 13:33 | 55.32023 | -2.56402 | 26412 ft | 362 kts | 296° |
| 2026-04-26 13:33 | 55.33252 | -2.60187 | 25817 ft | 362 kts | 297° |
| 2026-04-26 13:33 | 55.34513 | -2.64069 | 25035 ft | 361 kts | 297° |
| 2026-04-26 13:34 | 55.35736 | -2.67835 | 24217 ft | 359 kts | 297° |
| 2026-04-26 13:34 | 55.36970 | -2.71631 | 23331 ft | 357 kts | 297° |
| 2026-04-26 13:34 | 55.38198 | -2.75408 | 22388 ft | 354 kts | 297° |
| 2026-04-26 13:34 | 55.38610 | -2.76678 | 22075 ft | 354 kts | 297° |
| 2026-04-26 13:35 | 55.40622 | -2.82873 | 20595 ft | 350 kts | 297° |
| 2026-04-26 13:35 | 55.41828 | -2.86590 | 19735 ft | 347 kts | 297° |
| 2026-04-26 13:35 | 55.43022 | -2.90271 | 18900 ft | 344 kts | 297° |
| 2026-04-26 13:35 | 55.44220 | -2.93918 | 17998 ft | 342 kts | 298° |
| 2026-04-26 13:36 | 55.45080 | -2.96239 | 17385 ft | 341 kts | 303° |
| 2026-04-26 13:36 | 55.46680 | -2.99342 | 16461 ft | 343 kts | 317° |
| 2026-04-26 13:36 | 55.48694 | -3.01604 | 15593 ft | 345 kts | 332° |
| 2026-04-26 13:36 | 55.51704 | -3.03429 | 14470 ft | 345 kts | 341° |
| 2026-04-26 13:37 | 55.53269 | -3.04168 | 13888 ft | 343 kts | 342° |
| 2026-04-26 13:37 | 55.55538 | -3.05253 | 12973 ft | 341 kts | 341° |
| 2026-04-26 13:37 | 55.57804 | -3.06409 | 12071 ft | 338 kts | 340° |
| 2026-04-26 13:37 | 55.60050 | -3.07607 | 11189 ft | 335 kts | 339° |
| 2026-04-26 13:38 | 55.62273 | -3.08816 | 10337 ft | 332 kts | 339° |
| 2026-04-26 13:38 | 55.64066 | -3.09788 | 9604 ft | 331 kts | 339° |
| 2026-04-26 13:38 | 55.66159 | -3.11031 | 8969 ft | 320 kts | 334° |
| 2026-04-26 13:38 | 55.68025 | -3.12861 | 8677 ft | 296 kts | 317° |
| 2026-04-26 13:39 | 55.69271 | -3.15527 | 8489 ft | 271 kts | 293° |
| 2026-04-26 13:39 | 55.69763 | -3.18690 | 8343 ft | 269 kts | 272° |
| 2026-04-26 13:39 | 55.69597 | -3.21962 | 7946 ft | 266 kts | 252° |
| 2026-04-26 13:39 | 55.68768 | -3.24848 | 7457 ft | 263 kts | 233° |
| 2026-04-26 13:40 | 55.67589 | -3.27322 | 6971 ft | 262 kts | 229° |
| 2026-04-26 13:40 | 55.66424 | -3.29812 | 6502 ft | 264 kts | 233° |
| 2026-04-26 13:40 | 55.65435 | -3.32491 | 6112 ft | 262 kts | 240° |
| 2026-04-26 13:40 | 55.64657 | -3.35386 | 5715 ft | 259 kts | 248° |
| 2026-04-26 13:41 | 55.64113 | -3.38426 | 5338 ft | 257 kts | 255° |
| 2026-04-26 13:41 | 55.63802 | -3.41541 | 4962 ft | 258 kts | 263° |
| 2026-04-26 13:41 | 55.63715 | -3.44724 | 4574 ft | 259 kts | 270° |
| 2026-04-26 13:41 | 55.63860 | -3.47890 | 4269 ft | 257 kts | 277° |
| 2026-04-26 13:42 | 55.64229 | -3.50973 | 4057 ft | 256 kts | 284° |
| 2026-04-26 13:42 | 55.64822 | -3.53972 | 4012 ft | 260 kts | 291° |
| 2026-04-26 13:42 | 55.65593 | -3.56866 | 3999 ft | 260 kts | 297° |
| 2026-04-26 13:42 | 55.66579 | -3.59546 | 3985 ft | 261 kts | 307° |
| 2026-04-26 13:43 | 55.67807 | -3.61923 | 3997 ft | 262 kts | 314° |
| 2026-04-26 13:43 | 55.69161 | -3.64098 | 3999 ft | 262 kts | 317° |
| 2026-04-26 13:43 | 55.70558 | -3.66177 | 4006 ft | 262 kts | 318° |
| 2026-04-26 13:43 | 55.71941 | -3.68218 | 4002 ft | 262 kts | 318° |
| 2026-04-26 13:44 | 55.73342 | -3.70296 | 3998 ft | 262 kts | 318° |
| 2026-04-26 13:44 | 55.74742 | -3.72371 | 4004 ft | 262 kts | 318° |
| 2026-04-26 13:44 | 55.76137 | -3.74472 | 3997 ft | 263 kts | 317° |
| 2026-04-26 13:44 | 55.77530 | -3.76553 | 4002 ft | 263 kts | 319° |
| 2026-04-26 13:45 | 55.79090 | -3.78274 | 3979 ft | 265 kts | 338° |
| 2026-04-26 13:45 | 55.80873 | -3.78631 | 3964 ft | 254 kts | 8° |
| 2026-04-26 13:45 | 55.82439 | -3.77467 | 3949 ft | 239 kts | 39° |
| 2026-04-26 13:45 | 55.83383 | -3.75194 | 3929 ft | 223 kts | 73° |
| 2026-04-26 13:46 | 55.83567 | -3.73299 | 3961 ft | 215 kts | 89° |
| 2026-04-26 13:46 | 55.83779 | -3.70619 | 4084 ft | 220 kts | 74° |
| 2026-04-26 13:46 | 55.84401 | -3.68104 | 4025 ft | 223 kts | 60° |
| 2026-04-26 13:46 | 55.85233 | -3.65772 | 3716 ft | 223 kts | 56° |
| 2026-04-26 13:47 | 55.86073 | -3.63486 | 3393 ft | 225 kts | 58° |
| 2026-04-26 13:47 | 55.86893 | -3.61126 | 3071 ft | 220 kts | 59° |
| 2026-04-26 13:47 | 55.87658 | -3.58845 | 2777 ft | 210 kts | 59° |
| 2026-04-26 13:47 | 55.88392 | -3.56669 | 2521 ft | 198 kts | 58° |
| 2026-04-26 13:48 | 55.89090 | -3.54634 | 2250 ft | 187 kts | 59° |
| 2026-04-26 13:48 | 55.89731 | -3.52768 | 1996 ft | 167 kts | 58° |
| 2026-04-26 13:48 | 55.90314 | -3.51081 | 1736 ft | 155 kts | 59° |
| 2026-04-26 13:48 | 55.90872 | -3.49445 | 1412 ft | 154 kts | 58° |
| 2026-04-26 13:49 | 55.91428 | -3.47843 | 1268 ft | 149 kts | 58° |
| 2026-04-26 13:49 | 55.91955 | -3.46299 | 1142 ft | 144 kts | 58° |
| 2026-04-26 13:49 | 55.92470 | -3.44752 | 1002 ft | 147 kts | 59° |
| 2026-04-26 13:49 | 55.92991 | -3.43195 | 783 ft | 143 kts | 59° |
| 2026-04-26 13:50 | 55.93488 | -3.41694 | 558 ft | 139 kts | 57° |
| 2026-04-26 13:50 | 55.93986 | -3.40251 | 328 ft | 139 kts | 58° |
| 2026-04-26 13:50 | 55.94475 | -3.38810 | 145 ft | 132 kts | 58° |
| 2026-04-26 13:50 | 55.94912 | -3.37530 | 113 ft | 103 kts | 59° |
| 2026-04-26 13:51 | 55.95149 | -3.36809 | 112 ft | 44 kts | 59° |
| 2026-04-26 13:51 | 55.95265 | -3.36454 | 112 ft | 15 kts | 84° |
| 2026-04-26 13:51 | 55.95226 | -3.36380 | 114 ft | 6 kts | 150° |
| 2026-04-26 13:51 | 55.95198 | -3.36356 | 113 ft | 4 kts | 156° |
| 2026-04-26 13:52 | 55.95168 | -3.36327 | 114 ft | 6 kts | 149° |
| 2026-04-26 13:52 | 55.95164 | -3.36323 | 114 ft | 1 kts | 150° |
| 2026-04-26 13:52 | 55.95139 | -3.36307 | 116 ft | 4 kts | 172° |
| 2026-04-26 13:52 | 55.95118 | -3.36336 | 115 ft | 5 kts | 233° |
| 2026-04-26 13:53 | 55.95093 | -3.36396 | 114 ft | 6 kts | 221° |
| 2026-04-26 13:53 | 55.95057 | -3.36392 | 114 ft | 6 kts | 155° |
| 2026-04-26 13:53 | 55.95023 | -3.36351 | 115 ft | 3 kts | 141° |
| 2026-04-26 13:53 | 55.94994 | -3.36317 | 115 ft | 6 kts | 148° |
| 2026-04-26 13:54 | 55.94975 | -3.36297 | 115 ft | 2 kts | 149° |
| 2026-04-26 13:54 | 55.94961 | -3.36282 | 116 ft | 0 kts | 150° |